Aristes, PA

9:44 AM EST on November 26, 2014 (GMT -0500)
Mountain Road | Change Station
CLOSE
Current Station
Personal Weather Station
Location: Numidia, PA
Elevation: 1099 ft
Nearby Weather Stations
Active Advisory: Winter Storm Warning

Elev 1099 ft 40.85 °N, 76.39 °W | Updated 1 minute ago

Snow
Snow
32.9 °F
Feels Like 33 °F
N
0.0
Wind Variable Wind from NE

Today
High -- | Low -- °F
--% Chance of Precip.
Yesterday
High -- | Low -- °F
Precip. -- in
7:04 AM 4:40 PM
Waxing Crescent, 20% visible
Pressure 30.12 in
Visibility 0.5 miles
Clouds Overcast 400 ft
Windchill 33 °F
Dew Point 32 °F
Humidity 98%
Rainfall 0.00 in
Snow Depth Not available.
UV 0 out of 12
Pollen .10 out of 12
Air Quality Not available.
Flu Activity Not available.
SPECI KSEG 261427Z AUTO 00000KT 1/2SM SN FG OVC004 01/00 A3012 RMK AO2 P0006 T00060000

More Conditions Fewer Conditions

Pressure 30.12 in
Visibility 0.5 miles
Clouds Overcast 400 ft
Windchill 33 °F
Dew Point 32 °F
Humidity 98%
Rainfall 0.00 in
Snow Depth Not available.
UV 0 out of 12
Pollen .10 out of 12
Air Quality Not available.
Flu Activity Not available.
SPECI KSEG 261427Z AUTO 00000KT 1/2SM SN FG OVC004 01/00 A3012 RMK AO2 P0006 T00060000

More Conditions Fewer Conditions

Nowcast | as of 8:31 am EST on November 26, 2014

Snow will continue across the region this morning. Snow will be heavy at times. Roads will quickly become snow covered and slick...so use extra caution if traveling this morning.

×

10-Day Weather Forecast

Almanac

Astronomy

Nov. 26, 2014 Rise Set
Actual Time
Civil Twilight
Nautical Twilight
Astronomical Twilight
Moon
Length of Visible Light
Length of Day
Tomorrow will be .
, % of the Moon is Illuminated

Today's Extremes

State Highs State Lows

Community

WunderPhotos

Upload Photos

1,773,756 photos uploaded!

WunderBlogs® & News

Nearby

Air Quality

  Air Quality AQ Index Pollutant
Not available.

Snow Depth

Station Depth Elevation

Earthquake Activity

City Distance Mag. Time & Date
Minimum magnitude displayed is 2.5.

Coastal Water Temperatures

Place Temperature

Nearby Weather Stations